createdAt,value
2019-05-12T00:01:50.302Z,67.95
2019-05-12T00:04:20.407Z,67.96
2019-05-12T00:06:50.332Z,67.80
2019-05-12T00:09:20.842Z,67.89
2019-05-12T00:11:50.790Z,68.34
2019-05-12T00:14:20.621Z,68.08
2019-05-12T00:16:50.573Z,67.72
2019-05-12T00:19:21.549Z,67.80
2019-05-12T00:21:51.509Z,67.84
2019-05-12T00:24:21.530Z,68.32
2019-05-12T00:26:53.065Z,68.50
2019-05-12T00:29:22.981Z,68.81
2019-05-12T00:31:52.945Z,68.80
2019-05-12T00:34:23.383Z,68.95
2019-05-12T00:36:53.351Z,68.89
2019-05-12T00:39:23.154Z,69.15
2019-05-12T00:41:53.047Z,69.00
2019-05-12T00:44:23.286Z,69.08
2019-05-12T00:46:53.180Z,69.33
2019-05-12T00:49:23.488Z,69.40
2019-05-12T00:51:53.467Z,69.56
2019-05-12T00:54:23.408Z,69.48
2019-05-12T00:56:53.726Z,69.57
2019-05-12T00:59:23.720Z,69.79
2019-05-12T01:01:53.634Z,69.82
2019-05-12T01:04:23.593Z,69.82
2019-05-12T01:06:53.636Z,69.89
2019-05-12T01:09:24.105Z,69.71
2019-05-12T01:11:54.005Z,69.62
2019-05-12T01:14:23.860Z,69.53
2019-05-12T01:16:53.844Z,69.72
2019-05-12T01:19:24.047Z,70.04
2019-05-12T01:21:53.967Z,70.06
2019-05-12T01:24:23.960Z,69.82
2019-05-12T01:26:53.940Z,69.76
2019-05-12T01:29:23.743Z,69.89
2019-05-12T01:32:00.205Z,69.80
2019-05-12T01:34:30.172Z,69.77
2019-05-12T01:37:19.372Z,70.19
2019-05-12T01:39:49.599Z,70.10
2019-05-12T01:42:19.589Z,70.45
2019-05-12T01:44:50.769Z,70.56
2019-05-12T01:47:20.696Z,70.57
2019-05-12T01:49:50.978Z,70.71
2019-05-12T01:52:20.924Z,70.79
2019-05-12T01:54:50.899Z,70.56
2019-05-12T01:57:21.225Z,70.80
2019-05-12T01:59:51.087Z,70.64
2019-05-12T02:02:20.988Z,70.57
2019-05-12T02:05:10.492Z,70.49
2019-05-12T02:07:47.955Z,70.08
2019-05-12T02:10:18.649Z,69.77
2019-05-12T02:12:49.229Z,70.04
2019-05-12T02:15:20.881Z,70.07
2019-05-12T02:17:50.814Z,70.12
2019-05-12T02:20:21.489Z,70.27
2019-05-12T02:22:51.839Z,70.52
2019-05-12T02:25:21.877Z,70.73
2019-05-12T02:27:51.755Z,70.83
2019-05-12T02:30:22.552Z,70.84
2019-05-12T02:32:58.217Z,70.47
2019-05-12T02:35:25.411Z,70.04
2019-05-12T02:37:55.392Z,70.25
2019-05-12T02:40:25.796Z,70.12
2019-05-12T02:42:55.924Z,70.17
2019-05-12T02:45:25.988Z,70.09
2019-05-12T02:47:55.931Z,70.27
2019-05-12T02:50:35.831Z,70.31
2019-05-12T02:53:06.642Z,70.26
2019-05-12T02:55:37.042Z,70.39
2019-05-12T02:58:07.070Z,70.27
2019-05-12T03:00:37.469Z,70.49
2019-05-12T03:03:09.515Z,70.37
2019-05-12T03:05:44.261Z,70.87
2019-05-12T03:08:15.402Z,71.03
2019-05-12T03:10:47.995Z,71.04
2019-05-12T03:13:18.039Z,71.10
2019-05-12T03:15:47.995Z,71.54
2019-05-12T03:18:17.857Z,71.94
2019-05-12T03:20:47.808Z,72.05
2019-05-12T03:23:19.163Z,72.01
2019-05-12T03:25:49.586Z,71.90
2019-05-12T03:28:19.914Z,71.78
2019-05-12T03:30:50.193Z,71.70
2019-05-12T03:33:20.640Z,71.65
2019-05-12T03:35:58.641Z,71.94
2019-05-12T03:38:25.047Z,72.35
2019-05-12T03:40:55.247Z,72.59
2019-05-12T03:43:25.216Z,72.79
2019-05-12T03:45:56.005Z,72.93
2019-05-12T03:48:25.954Z,73.19
2019-05-12T03:50:56.190Z,73.34
2019-05-12T03:53:26.132Z,73.43
2019-05-12T03:55:56.113Z,73.27
2019-05-12T03:58:25.965Z,73.08
2019-05-12T04:00:55.978Z,73.03
2019-05-12T04:03:25.923Z,73.18
2019-05-12T04:05:55.879Z,73.33
2019-05-12T04:08:25.671Z,73.18
2019-05-12T04:10:55.634Z,73.48
2019-05-12T04:13:26.779Z,73.48
2019-05-12T04:15:56.896Z,73.37
2019-05-12T04:18:26.752Z,73.58
2019-05-12T04:20:56.743Z,73.78
2019-05-12T04:23:26.716Z,74.08
2019-05-12T04:26:07.459Z,74.03
2019-05-12T04:28:28.041Z,73.95
2019-05-12T04:30:57.929Z,73.76
2019-05-12T04:33:27.881Z,73.58
2019-05-12T04:35:58.069Z,73.66
2019-05-12T04:38:28.341Z,73.82
2019-05-12T04:40:58.296Z,73.78
2019-05-12T04:43:28.190Z,73.74
2019-05-12T04:45:58.048Z,73.72
2019-05-12T04:48:27.995Z,73.77
2019-05-12T04:50:57.967Z,73.41
2019-05-12T04:53:27.964Z,72.94
2019-05-12T04:56:10.881Z,72.89
2019-05-12T04:58:29.302Z,72.71
2019-05-12T05:00:59.302Z,72.81
2019-05-12T05:03:29.462Z,72.68
2019-05-12T05:05:59.636Z,72.77
2019-05-12T05:08:29.586Z,72.72
2019-05-12T05:10:59.910Z,72.74
2019-05-12T05:13:30.217Z,72.28
2019-05-12T05:16:00.142Z,72.65
2019-05-12T05:18:34.296Z,72.77
2019-05-12T05:21:04.698Z,72.58
2019-05-12T05:23:35.275Z,73.34
2019-05-12T05:26:20.710Z,73.72
2019-05-12T05:28:38.539Z,73.55
2019-05-12T05:31:08.507Z,73.99
2019-05-12T05:33:38.423Z,73.92
2019-05-12T05:36:08.882Z,73.92
2019-05-12T05:38:40.093Z,73.68
2019-05-12T05:41:10.717Z,73.84
2019-05-12T05:43:41.103Z,73.90
2019-05-12T05:46:10.944Z,73.89
2019-05-12T05:48:43.269Z,73.96
2019-05-12T05:51:13.598Z,73.65
2019-05-12T05:53:44.341Z,73.21
2019-05-12T05:56:18.050Z,73.17
2019-05-12T05:58:51.637Z,73.25
2019-05-12T06:01:18.242Z,72.82
2019-05-12T06:03:48.553Z,72.59
2019-05-12T06:06:18.432Z,72.62
2019-05-12T06:08:59.183Z,72.52
2019-05-12T06:11:29.148Z,72.45
2019-05-12T06:14:03.198Z,72.06
2019-05-12T06:16:30.856Z,71.96
2019-05-12T06:19:00.841Z,71.75
2019-05-12T06:21:36.283Z,71.44
2019-05-12T06:24:03.540Z,70.62
2019-05-12T06:26:35.833Z,70.55
2019-05-12T06:29:05.646Z,70.24
2019-05-12T06:31:37.246Z,69.58
2019-05-12T06:34:15.298Z,69.29
2019-05-12T06:36:39.189Z,69.46
2019-05-12T06:39:10.426Z,68.41
2019-05-12T06:41:40.707Z,68.79
2019-05-12T06:44:14.862Z,68.17
2019-05-12T06:46:44.221Z,69.09
2019-05-12T06:49:17.598Z,68.97
2019-05-12T06:51:45.816Z,67.43
2019-05-12T06:54:16.021Z,67.76
2019-05-12T06:56:50.123Z,68.40
2019-05-12T06:59:17.974Z,68.67
2019-05-12T07:01:49.814Z,68.88
2019-05-12T07:04:23.444Z,67.79
2019-05-12T07:06:56.341Z,67.12
2019-05-12T07:09:27.905Z,67.29
2019-05-12T07:12:02.724Z,67.76
2019-05-12T07:14:27.462Z,67.30
2019-05-12T07:17:05.611Z,67.04
2019-05-12T07:19:34.289Z,66.43
2019-05-12T07:22:18.826Z,65.95
2019-05-12T07:24:35.760Z,66.05
2019-05-12T07:27:09.131Z,66.17
2019-05-12T07:29:38.010Z,65.63
2019-05-12T07:32:16.535Z,65.42
2019-05-12T07:34:39.702Z,65.42
2019-05-12T07:37:10.302Z,65.03
2019-05-12T07:39:47.795Z,65.01
2019-05-12T07:42:14.823Z,64.97
2019-05-12T07:44:46.423Z,65.60
2019-05-12T07:47:19.125Z,65.58
2019-05-12T07:49:48.605Z,63.92
2019-05-12T07:52:19.348Z,63.88
2019-05-12T07:54:52.753Z,63.54
2019-05-12T07:57:24.206Z,63.31
2019-05-12T07:59:54.560Z,62.14
2019-05-12T08:02:31.521Z,62.77
2019-05-12T08:04:56.183Z,61.49
2019-05-12T08:07:29.808Z,61.57
2019-05-12T08:09:58.860Z,60.37
2019-05-12T08:12:29.909Z,58.95
2019-05-12T08:15:07.708Z,57.30
2019-05-12T08:17:33.666Z,59.05
2019-05-12T08:20:04.489Z,58.71
2019-05-12T08:22:34.693Z,59.14
2019-05-12T08:25:05.610Z,59.68
2019-05-12T08:27:39.127Z,58.79
2019-05-12T08:30:08.405Z,58.18
2019-05-12T08:32:38.410Z,58.10
2019-05-12T08:35:08.409Z,57.57
2019-05-12T08:37:38.676Z,57.37
2019-05-12T08:40:09.054Z,55.67
2019-05-12T08:42:39.022Z,55.92
2019-05-12T08:45:15.156Z,57.19
2019-05-12T08:47:40.823Z,58.13
2019-05-12T08:50:13.492Z,58.14
2019-05-12T08:52:44.319Z,57.35
2019-05-12T08:55:16.833Z,57.40
2019-05-12T08:57:49.512Z,57.30
2019-05-12T09:03:20.373Z,57.00
2019-05-12T09:05:50.943Z,57.97
2019-05-12T09:08:24.143Z,57.86
2019-05-12T09:10:55.585Z,56.95
2019-05-12T09:13:25.948Z,57.80
2019-05-12T09:15:55.838Z,55.91
2019-05-12T09:18:33.628Z,56.14
2019-05-12T09:20:59.100Z,56.51
2019-05-12T09:23:32.773Z,54.88
2019-05-12T09:26:01.003Z,54.96
2019-05-12T09:28:44.346Z,55.28
2019-05-12T09:31:03.698Z,55.73
2019-05-12T09:33:34.708Z,56.12
2019-05-12T09:36:05.025Z,56.54
2019-05-12T09:38:34.949Z,55.54
2019-05-12T09:41:05.529Z,53.43
2019-05-12T09:43:40.377Z,53.41
2019-05-12T09:46:08.195Z,53.78
2019-05-12T09:48:39.185Z,55.58
2019-05-12T09:51:10.235Z,54.69
2019-05-12T09:53:42.831Z,55.32
2019-05-12T09:56:13.713Z,54.97
2019-05-12T09:58:43.752Z,52.60
2019-05-12T10:01:14.161Z,52.44
2019-05-12T10:03:44.496Z,51.46
2019-05-12T10:06:17.874Z,52.34
2019-05-12T10:08:46.988Z,53.95
2019-05-12T10:11:20.746Z,55.29
2019-05-12T10:13:48.735Z,55.56
2019-05-12T10:16:18.881Z,55.09
2019-05-12T10:18:51.391Z,55.92
2019-05-12T10:21:20.732Z,53.74
2019-05-12T10:24:00.297Z,52.72
2019-05-12T10:26:22.884Z,53.06
2019-05-12T10:28:58.073Z,56.14
2019-05-12T10:31:29.403Z,53.50
2019-05-12T10:34:15.418Z,51.73
2019-05-12T10:36:49.194Z,52.68
2019-05-12T10:39:19.119Z,51.99
2019-05-12T10:41:49.241Z,52.11
2019-05-12T10:44:20.545Z,52.00
2019-05-12T10:46:53.860Z,51.39
2019-05-12T10:49:23.661Z,49.18
2019-05-12T10:51:54.628Z,51.47
2019-05-12T10:54:24.983Z,51.45
2019-05-12T10:56:54.989Z,53.39
2019-05-12T10:59:32.697Z,51.27
2019-05-12T11:01:56.863Z,49.82
2019-05-12T11:04:35.875Z,50.48
2019-05-12T11:06:58.616Z,49.22
2019-05-12T11:09:31.675Z,48.77
2019-05-12T11:12:03.397Z,50.35
2019-05-12T11:14:34.237Z,49.82
2019-05-12T11:17:08.227Z,49.36
2019-05-12T11:19:40.753Z,48.34
2019-05-12T11:22:09.397Z,48.26
2019-05-12T11:24:39.641Z,48.10
2019-05-12T11:27:09.639Z,48.53
2019-05-12T11:29:46.133Z,49.61
2019-05-12T11:32:13.889Z,49.07
2019-05-12T11:34:44.347Z,48.74
2019-05-12T11:37:15.624Z,47.61
2019-05-12T11:39:47.621Z,47.68
2019-05-12T11:42:17.155Z,45.38
2019-05-12T11:44:46.929Z,45.75
2019-05-12T11:47:24.432Z,47.08
2019-05-12T11:49:48.733Z,47.69
2019-05-12T11:52:19.534Z,45.47
2019-05-12T11:54:53.610Z,44.04
2019-05-12T11:57:28.643Z,42.26
2019-05-12T12:00:01.503Z,44.89
2019-05-12T12:02:30.396Z,43.22
2019-05-12T12:04:58.018Z,42.26
2019-05-12T12:07:27.885Z,43.10
2019-05-12T12:09:59.572Z,42.85
2019-05-12T12:12:30.014Z,43.25
2019-05-12T12:14:59.899Z,42.44
2019-05-12T12:17:32.614Z,41.72
2019-05-12T12:20:03.775Z,42.20
2019-05-12T12:22:43.558Z,43.20
2019-05-12T12:25:15.640Z,42.42
2019-05-12T12:27:45.580Z,42.50
2019-05-12T12:30:19.632Z,43.29
2019-05-12T12:32:50.255Z,42.04
2019-05-12T12:35:19.318Z,42.27
2019-05-12T12:37:50.223Z,43.09
2019-05-12T12:40:20.218Z,41.81
2019-05-12T12:42:50.384Z,41.80
2019-05-12T12:45:48.623Z,41.81
2019-05-12T12:48:19.229Z,41.43
2019-05-12T12:50:50.247Z,42.49
2019-05-12T12:53:20.348Z,41.81
2019-05-12T12:55:50.294Z,42.31
2019-05-12T12:58:21.097Z,39.99
2019-05-12T13:00:56.240Z,40.64
2019-05-12T13:03:25.767Z,41.32
2019-05-12T13:05:55.920Z,41.39
2019-05-12T13:08:25.808Z,43.07
2019-05-12T13:10:55.866Z,41.82
2019-05-12T13:13:26.105Z,43.23
2019-05-12T13:15:55.901Z,40.58
2019-05-12T13:18:32.971Z,40.36
2019-05-12T13:20:58.101Z,40.43
2019-05-12T13:23:38.083Z,39.61
2019-05-12T13:26:00.260Z,39.82
2019-05-12T13:28:30.122Z,39.55
2019-05-12T13:31:09.062Z,38.52
2019-05-12T13:33:33.801Z,40.03
2019-05-12T13:36:04.569Z,41.37
2019-05-12T13:38:38.648Z,39.54
2019-05-12T13:41:09.507Z,38.96
2019-05-12T13:43:37.851Z,38.06
2019-05-12T13:46:08.419Z,39.21
2019-05-12T13:48:38.367Z,37.55
2019-05-12T13:51:13.315Z,36.29
2019-05-12T13:53:40.371Z,35.95
2019-05-12T13:56:13.593Z,35.81
2019-05-12T13:58:45.838Z,37.36
2019-05-12T14:01:19.874Z,36.94
2019-05-12T14:03:50.702Z,36.49
2019-05-12T14:06:23.018Z,36.50
2019-05-12T14:08:50.502Z,35.86
2019-05-12T14:11:20.479Z,34.92
2019-05-12T14:13:50.379Z,34.39
2019-05-12T14:16:20.265Z,35.84
2019-05-12T14:18:51.068Z,36.14
2019-05-12T14:21:24.319Z,37.22
2019-05-12T14:23:54.058Z,37.29
2019-05-12T14:26:24.323Z,37.63
2019-05-12T14:28:54.656Z,37.01
2019-05-12T14:31:30.283Z,38.24
2019-05-12T14:33:56.112Z,39.34
2019-05-12T14:36:26.911Z,37.17
2019-05-12T14:39:00.183Z,36.65
2019-05-12T14:41:28.480Z,37.42
2019-05-12T14:44:01.537Z,36.14
2019-05-12T14:46:33.326Z,38.10
2019-05-12T14:49:03.798Z,37.46
2019-05-12T14:51:33.765Z,37.57
2019-05-12T14:54:04.094Z,38.13
2019-05-12T14:56:34.003Z,38.81
2019-05-12T14:59:04.198Z,39.23
2019-05-12T15:01:51.649Z,40.49
2019-05-12T15:04:05.910Z,39.46
2019-05-12T15:06:35.886Z,37.98
2019-05-12T15:09:11.429Z,39.51
2019-05-12T15:11:39.355Z,39.04
2019-05-12T15:14:09.225Z,41.42
2019-05-12T15:16:40.910Z,43.26
2019-05-12T15:19:10.987Z,43.90
2019-05-12T15:21:43.539Z,43.44
2019-05-12T15:24:15.529Z,42.00
2019-05-12T15:26:44.261Z,43.54
2019-05-12T15:29:19.708Z,43.46
2019-05-12T15:31:54.275Z,42.06
2019-05-12T15:34:18.289Z,40.42
2019-05-12T15:36:51.881Z,41.81
2019-05-12T15:39:21.042Z,40.66
2019-05-12T15:41:55.944Z,39.74
2019-05-12T15:44:31.182Z,39.60
2019-05-12T15:46:54.213Z,38.69
2019-05-12T15:49:26.167Z,40.12
2019-05-12T15:51:58.635Z,40.76
2019-05-12T15:54:30.977Z,40.86
2019-05-12T15:57:00.116Z,40.82
2019-05-12T15:59:30.095Z,40.97
2019-05-12T16:02:09.522Z,41.49
2019-05-12T16:04:34.690Z,41.51
2019-05-12T16:07:04.058Z,42.00
2019-05-12T16:09:35.181Z,41.34
2019-05-12T16:12:18.213Z,42.12
2019-05-12T16:14:41.123Z,42.39
2019-05-12T16:17:08.450Z,42.65
2019-05-12T16:19:38.951Z,42.46
2019-05-12T16:22:08.933Z,42.27
2019-05-12T16:24:43.419Z,42.57
2019-05-12T16:27:10.771Z,42.57
2019-05-12T16:29:45.398Z,41.81
2019-05-12T16:32:23.844Z,41.61
2019-05-12T16:34:47.645Z,41.75
2019-05-12T16:37:16.005Z,42.25
2019-05-12T16:39:47.474Z,42.26
2019-05-12T16:42:17.505Z,43.47
2019-05-12T16:44:47.391Z,43.58
2019-05-12T16:47:18.786Z,44.19
2019-05-12T16:49:48.925Z,44.24
2019-05-12T16:52:20.045Z,43.85
2019-05-12T16:54:50.402Z,44.82
2019-05-12T16:57:20.688Z,44.31
2019-05-12T16:59:55.944Z,45.01
2019-05-12T17:02:23.523Z,45.12
2019-05-12T17:04:54.208Z,44.01
2019-05-12T17:07:27.146Z,44.39
2019-05-12T17:09:56.608Z,44.72
2019-05-12T17:12:31.916Z,44.60
2019-05-12T17:14:59.782Z,44.68
2019-05-12T17:17:30.160Z,44.70
2019-05-12T17:20:00.436Z,44.52
2019-05-12T17:22:30.392Z,44.13
2019-05-12T17:25:00.179Z,44.62
2019-05-12T17:27:30.497Z,45.24
2019-05-12T17:30:00.380Z,43.52
2019-05-12T17:32:30.272Z,44.10
2019-05-12T17:35:00.209Z,43.60
2019-05-12T17:37:31.335Z,43.19
2019-05-12T17:40:03.726Z,43.81
2019-05-12T17:42:34.422Z,43.61
2019-05-12T17:45:09.377Z,43.19
2019-05-12T17:47:36.268Z,43.23
2019-05-12T17:50:09.933Z,43.71
2019-05-12T17:52:37.993Z,43.23
2019-05-12T17:55:10.585Z,43.39
2019-05-12T17:57:40.454Z,43.94
2019-05-12T18:00:11.030Z,44.27
2019-05-12T18:02:43.631Z,44.34
2019-05-12T18:05:15.523Z,44.22
2019-05-12T18:07:44.971Z,44.16
2019-05-12T18:10:16.409Z,44.21
2019-05-12T18:12:46.366Z,45.26
2019-05-12T18:15:25.626Z,45.18
2019-05-12T18:17:50.159Z,46.18
2019-05-12T18:20:20.232Z,45.86
2019-05-12T18:22:50.615Z,46.08
2019-05-12T18:25:24.194Z,45.73
2019-05-12T18:27:54.200Z,46.23
2019-05-12T18:30:23.996Z,47.32
2019-05-12T18:33:04.062Z,48.79
2019-05-12T18:35:26.535Z,47.74
2019-05-12T18:37:56.718Z,47.12
2019-05-12T18:40:28.168Z,47.91
2019-05-12T18:42:58.322Z,47.48
2019-05-12T18:45:28.273Z,48.02
2019-05-12T18:48:01.033Z,47.44
2019-05-12T18:50:32.071Z,48.58
2019-05-12T18:53:02.037Z,47.58
2019-05-12T18:55:35.930Z,48.17
2019-05-12T18:58:04.463Z,48.59
2019-05-12T19:00:34.431Z,48.47
2019-05-12T19:03:07.267Z,48.45
2019-05-12T19:05:36.318Z,49.00
2019-05-12T19:08:06.257Z,49.17
2019-05-12T19:10:38.707Z,49.48
2019-05-12T19:13:07.981Z,49.42
2019-05-12T19:15:37.930Z,49.56
2019-05-12T19:18:07.933Z,50.11
2019-05-12T19:20:38.298Z,50.70
2019-05-12T19:23:08.228Z,51.12
2019-05-12T19:25:40.759Z,51.43
2019-05-12T19:28:10.520Z,52.07
2019-05-12T19:30:40.820Z,53.11
2019-05-12T19:33:11.133Z,53.84
2019-05-12T19:35:42.606Z,54.29
2019-05-12T19:38:15.192Z,54.96
2019-05-12T19:40:47.248Z,55.27
2019-05-12T19:43:16.520Z,55.84
2019-05-12T19:45:46.539Z,56.07
2019-05-12T19:48:24.889Z,56.41
2019-05-12T19:50:55.124Z,56.71
2019-05-12T19:53:20.094Z,57.03
2019-05-12T19:55:50.314Z,57.73
2019-05-12T19:58:20.250Z,57.70
2019-05-12T20:00:50.196Z,57.48
2019-05-12T20:03:20.689Z,57.36
2019-05-12T20:05:50.873Z,57.65
2019-05-12T20:08:20.751Z,58.23
2019-05-12T20:10:50.675Z,58.56
2019-05-12T20:13:21.892Z,58.67
2019-05-12T20:15:53.063Z,59.16
2019-05-12T20:18:23.776Z,59.19
2019-05-12T20:20:54.441Z,59.33
2019-05-12T20:23:24.726Z,59.54
2019-05-12T20:25:55.025Z,59.71
2019-05-12T20:28:25.062Z,60.13
2019-05-12T20:31:00.770Z,60.22
2019-05-12T20:33:26.813Z,60.32
2019-05-12T20:35:57.098Z,60.73
2019-05-12T20:38:34.040Z,60.97
2019-05-12T20:40:58.579Z,61.02
2019-05-12T20:43:32.355Z,61.36
2019-05-12T20:46:00.534Z,61.69
2019-05-12T20:48:31.232Z,61.97
2019-05-12T20:51:03.457Z,61.87
2019-05-12T20:53:36.306Z,61.91
2019-05-12T20:56:05.057Z,61.95
2019-05-12T20:58:42.997Z,62.19
2019-05-12T21:01:06.647Z,62.38
2019-05-12T21:03:39.784Z,61.72
2019-05-12T21:06:08.148Z,61.48
2019-05-12T21:08:38.100Z,61.13
2019-05-12T21:11:08.024Z,60.86
2019-05-12T21:13:38.352Z,60.88
2019-05-12T21:16:16.544Z,60.65
2019-05-12T21:18:47.774Z,60.47
2019-05-12T21:21:14.119Z,60.41
2019-05-12T21:23:45.577Z,60.56
2019-05-12T21:26:15.348Z,60.51
2019-05-12T21:28:48.224Z,60.76
2019-05-12T21:31:20.485Z,60.72
2019-05-12T21:33:48.610Z,60.78
2019-05-12T21:36:24.159Z,60.91
2019-05-12T21:38:50.147Z,60.98
2019-05-12T21:41:21.835Z,61.13
2019-05-12T21:43:51.603Z,61.28
2019-05-12T21:46:24.248Z,61.00
2019-05-12T21:48:56.159Z,60.78
2019-05-12T21:51:25.604Z,60.54
2019-05-12T21:53:56.119Z,60.74
2019-05-12T21:56:27.581Z,60.42
2019-05-12T21:58:58.323Z,60.23
2019-05-12T22:01:28.370Z,60.48
2019-05-12T22:04:02.332Z,60.47
2019-05-12T22:06:30.570Z,60.35
2019-05-12T22:09:04.174Z,60.37
2019-05-12T22:11:34.777Z,60.48
2019-05-12T22:14:04.933Z,60.19
2019-05-12T22:16:43.349Z,59.78
2019-05-12T22:19:08.417Z,59.07
2019-05-12T22:21:46.951Z,58.98
2019-05-12T22:24:09.773Z,58.40
2019-05-12T22:26:43.348Z,58.39
2019-05-12T22:29:13.552Z,58.45
2019-05-12T22:31:47.082Z,58.01
2019-05-12T22:34:15.017Z,58.00
2019-05-12T22:36:54.643Z,57.58
2019-05-12T22:39:17.229Z,58.43
2019-05-12T22:41:47.096Z,58.55
2019-05-12T22:44:20.809Z,59.10
2019-05-12T22:46:48.538Z,59.25
2019-05-12T22:49:21.141Z,59.33
2019-05-12T22:51:54.589Z,59.08
2019-05-12T22:54:21.533Z,58.94
2019-05-12T22:56:55.323Z,58.59
2019-05-12T22:59:24.069Z,57.91
2019-05-12T23:01:54.314Z,58.62
2019-05-12T23:04:25.938Z,59.07
2019-05-12T23:06:56.187Z,59.11
2019-05-12T23:09:30.044Z,59.10
2019-05-12T23:11:57.984Z,59.29
2019-05-12T23:14:27.832Z,59.65
2019-05-12T23:17:00.154Z,59.68
2019-05-12T23:19:29.874Z,59.66
2019-05-12T23:22:00.163Z,59.43
2019-05-12T23:24:30.305Z,59.00
2019-05-12T23:27:01.667Z,59.05
2019-05-12T23:29:33.747Z,57.99
2019-05-12T23:32:07.204Z,57.87
2019-05-12T23:34:35.790Z,58.22
2019-05-12T23:37:05.954Z,58.54
2019-05-12T23:39:38.243Z,58.57
2019-05-12T23:42:07.393Z,58.62
2019-05-12T23:44:37.249Z,58.59
2019-05-12T23:47:07.186Z,58.09
2019-05-12T23:49:37.128Z,57.96
2019-05-12T23:52:08.868Z,57.46
2019-05-12T23:54:38.741Z,57.91
2019-05-12T23:57:08.683Z,57.94
2019-05-12T23:59:38.548Z,57.61
